sensor_id;sensor_type;location;lat;lon;timestamp;pressure;altitude;pressure_sealevel;temperature;humidity
81232;BME280;70703;55.652;37.710;2023-07-02T00:00:01;98514.31;;;19.65;65.84
81232;BME280;70703;55.652;37.710;2023-07-02T00:00:21;98517.03;;;19.65;65.64
81232;BME280;70703;55.652;37.710;2023-07-02T00:00:35;98462.41;;;19.32;65.38
81232;BME280;70703;55.652;37.710;2023-07-02T00:00:49;98512.69;;;19.64;66.04
81232;BME280;70703;55.652;37.710;2023-07-02T00:01:06;98507.84;;;19.61;65.87
81232;BME280;70703;55.652;37.710;2023-07-02T00:01:35;98513.53;;;19.64;65.48
81232;BME280;70703;55.652;37.710;2023-07-02T00:01:47;98501.34;;;19.56;65.42
81232;BME280;70703;55.652;37.710;2023-07-02T00:01:59;98512.69;;;19.64;65.52
81232;BME280;70703;55.652;37.710;2023-07-02T00:02:11;98506.22;;;19.59;65.17
81232;BME280;70703;55.652;37.710;2023-07-02T00:02:24;98511.66;;;19.59;65.66
81232;BME280;70703;55.652;37.710;2023-07-02T00:02:35;98486.47;;;19.49;65.42
81232;BME280;70703;55.652;37.710;2023-07-02T00:02:46;98504.03;;;19.62;65.23
81232;BME280;70703;55.652;37.710;2023-07-02T00:03:00;98505.97;;;19.56;65.41
81232;BME280;70703;55.652;37.710;2023-07-02T00:03:11;98503.81;;;19.53;65.28
81232;BME280;70703;55.652;37.710;2023-07-02T00:03:23;98494.84;;;19.52;65.42
81232;BME280;70703;55.652;37.710;2023-07-02T00:03:37;98511.66;;;19.59;65.56
81232;BME280;70703;55.652;37.710;2023-07-02T00:03:48;98502.44;;;19.55;65.25
81232;BME280;70703;55.652;37.710;2023-07-02T00:04:00;98511.66;;;19.59;65.17
81232;BME280;70703;55.652;37.710;2023-07-02T00:04:12;98514.09;;;19.61;65.27
81232;BME280;70703;55.652;37.710;2023-07-02T00:04:27;98522.25;;;19.56;65.43
81232;BME280;70703;55.652;37.710;2023-07-02T00:04:40;98511.09;;;19.57;65.12
81232;BME280;70703;55.652;37.710;2023-07-02T00:04:53;98517.88;;;19.60;65.18
81232;BME280;70703;55.652;37.710;2023-07-02T00:05:06;98507.59;;;19.57;65.18
81232;BME280;70703;55.652;37.710;2023-07-02T00:05:19;98506.47;;;19.58;65.24
81232;BME280;70703;55.652;37.710;2023-07-02T00:05:30;98513.25;;;19.61;65.34
81232;BME280;70703;55.652;37.710;2023-07-02T00:05:42;98506.53;;;19.53;65.23
81232;BME280;70703;55.652;37.710;2023-07-02T00:05:54;98509.50;;;19.51;65.46
81232;BME280;70703;55.652;37.710;2023-07-02T00:06:08;98511.66;;;19.59;65.52
81232;BME280;70703;55.652;37.710;2023-07-02T00:06:21;98476.50;;;19.34;65.11
81232;BME280;70703;55.652;37.710;2023-07-02T00:06:32;98488.91;;;19.45;65.58
81232;BME280;70703;55.652;37.710;2023-07-02T00:06:52;98514.38;;;19.59;65.12
81232;BME280;70703;55.652;37.710;2023-07-02T00:07:06;98500.84;;;19.49;65.28
81232;BME280;70703;55.652;37.710;2023-07-02T00:07:17;98505.97;;;19.56;65.55
81232;BME280;70703;55.652;37.710;2023-07-02T00:07:30;98506.75;;;19.56;65.42
81232;BME280;70703;55.652;37.710;2023-07-02T00:07:43;98507.03;;;19.55;65.58
81232;BME280;70703;55.652;37.710;2023-07-02T00:07:57;98508.97;;;19.54;65.58
81232;BME280;70703;55.652;37.710;2023-07-02T00:08:10;98508.69;;;19.56;65.59
81232;BME280;70703;55.652;37.710;2023-07-02T00:08:22;98512.47;;;19.60;65.45
81232;BME280;70703;55.652;37.710;2023-07-02T00:08:34;98513.81;;;19.57;65.34
81232;BME280;70703;55.652;37.710;2023-07-02T00:08:46;98511.66;;;19.59;65.58
81232;BME280;70703;55.652;37.710;2023-07-02T00:08:58;98493.25;;;19.46;65.30
81232;BME280;70703;55.652;37.710;2023-07-02T00:09:10;98518.16;;;19.58;65.19
81232;BME280;70703;55.652;37.710;2023-07-02T00:09:23;98511.09;;;19.57;65.42
81232;BME280;70703;55.652;37.710;2023-07-02T00:09:35;98507.31;;;19.53;65.12
81232;BME280;70703;55.652;37.710;2023-07-02T00:09:47;98512.19;;;19.56;65.22
81232;BME280;70703;55.652;37.710;2023-07-02T00:09:59;98513.81;;;19.57;65.31
81232;BME280;70703;55.652;37.710;2023-07-02T00:10:11;98517.63;;;19.56;65.12
81232;BME280;70703;55.652;37.710;2023-07-02T00:10:23;98520.03;;;19.58;65.08
81232;BME280;70703;55.652;37.710;2023-07-02T00:10:35;98506.53;;;19.53;65.21
81232;BME280;70703;55.652;37.710;2023-07-02T00:10:47;98519.25;;;19.57;65.23
81232;BME280;70703;55.652;37.710;2023-07-02T00:10:59;98508.41;;;19.52;65.36
81232;BME280;70703;55.652;37.710;2023-07-02T00:11:10;98509.50;;;19.51;65.39
81232;BME280;70703;55.652;37.710;2023-07-02T00:11:23;98519.25;;;19.57;65.50
81232;BME280;70703;55.652;37.710;2023-07-02T00:11:34;98505.97;;;19.51;65.49
81232;BME280;70703;55.652;37.710;2023-07-02T00:11:46;98508.97;;;19.49;65.72
81232;BME280;70703;55.652;37.710;2023-07-02T00:11:58;98499.81;;;19.40;65.46
81232;BME280;70703;55.652;37.710;2023-07-02T00:12:11;98510.03;;;19.53;65.41
81232;BME280;70703;55.652;37.710;2023-07-02T00:12:23;98516.81;;;19.56;65.63
81232;BME280;70703;55.652;37.710;2023-07-02T00:12:34;98524.94;;;19.56;65.43
81232;BME280;70703;55.652;37.710;2023-07-02T00:12:47;98513.31;;;19.50;65.34
81232;BME280;70703;55.652;37.710;2023-07-02T00:12:58;98521.44;;;19.55;65.47
81232;BME280;70703;55.652;37.710;2023-07-02T00:13:10;98524.94;;;19.56;65.20
81232;BME280;70703;55.652;37.710;2023-07-02T00:13:23;98521.44;;;19.55;65.29
81232;BME280;70703;55.652;37.710;2023-07-02T00:13:35;98514.91;;;19.56;64.95
81232;BME280;70703;55.652;37.710;2023-07-02T00:13:46;98520.38;;;19.51;65.31
81232;BME280;70703;55.652;37.710;2023-07-02T00:13:58;98482.47;;;19.31;65.24
81232;BME280;70703;55.652;37.710;2023-07-02T00:14:12;98507.34;;;19.48;64.97
81232;BME280;70703;55.652;37.710;2023-07-02T00:14:24;98503.03;;;19.47;65.19
81232;BME280;70703;55.652;37.710;2023-07-02T00:14:36;98502.47;;;19.45;65.23
81232;BME280;70703;55.652;37.710;2023-07-02T00:14:48;98513.88;;;19.47;65.37
81232;BME280;70703;55.652;37.710;2023-07-02T00:15:05;98513.88;;;19.47;65.17
81232;BME280;70703;55.652;37.710;2023-07-02T00:15:18;98514.94;;;19.51;65.06
81232;BME280;70703;55.652;37.710;2023-07-02T00:15:29;98498.16;;;19.39;65.17
81232;BME280;70703;55.652;37.710;2023-07-02T00:15:41;98508.97;;;19.49;65.23
81232;BME280;70703;55.652;37.710;2023-07-02T00:15:53;98519.81;;;19.54;65.08
81232;BME280;70703;55.652;37.710;2023-07-02T00:16:05;98519.81;;;19.49;65.02
81232;BME280;70703;55.652;37.710;2023-07-02T00:16:16;98516.03;;;19.45;64.83
81232;BME280;70703;55.652;37.710;2023-07-02T00:16:28;98523.59;;;19.53;65.09
81232;BME280;70703;55.652;37.710;2023-07-02T00:16:45;98518.16;;;19.53;65.14
81232;BME280;70703;55.652;37.710;2023-07-02T00:16:57;98518.72;;;19.50;64.92
81232;BME280;70703;55.652;37.710;2023-07-02T00:17:09;98499.81;;;19.40;64.89
81232;BME280;70703;55.652;37.710;2023-07-02T00:17:23;98519.28;;;19.47;65.07
81232;BME280;70703;55.652;37.710;2023-07-02T00:17:36;98506.03;;;19.35;65.47
81232;BME280;70703;55.652;37.710;2023-07-02T00:17:51;98527.38;;;19.52;65.49
81232;BME280;70703;55.652;37.710;2023-07-02T00:18:04;98515.75;;;19.52;65.24
81232;BME280;70703;55.652;37.710;2023-07-02T00:18:16;98478.72;;;19.16;65.27
81232;BME280;70703;55.652;37.710;2023-07-02T00:18:30;98496.03;;;19.31;65.14
81232;BME280;70703;55.652;37.710;2023-07-02T00:18:44;98505.78;;;19.32;65.03
81232;BME280;70703;55.652;37.710;2023-07-02T00:19:03;98520.91;;;19.48;65.03
81232;BME280;70703;55.652;37.710;2023-07-02T00:19:16;98518.72;;;19.50;64.96
81232;BME280;70703;55.652;37.710;2023-07-02T00:19:27;98524.16;;;19.50;65.04
81232;BME280;70703;55.652;37.710;2023-07-02T00:19:39;98522.53;;;19.49;65.33
81232;BME280;70703;55.652;37.710;2023-07-02T00:19:53;98510.66;;;19.40;65.16
81232;BME280;70703;55.652;37.710;2023-07-02T00:20:07;98511.97;;;19.42;65.40
81232;BME280;70703;55.652;37.710;2023-07-02T00:20:25;98518.22;;;19.43;65.36
81232;BME280;70703;55.652;37.710;2023-07-02T00:20:37;98525.25;;;19.49;65.50
81232;BME280;70703;55.652;37.710;2023-07-02T00:20:49;98520.91;;;19.48;65.09
81232;BME280;70703;55.652;37.710;2023-07-02T00:21:02;98527.94;;;19.49;65.36
81232;BME280;70703;55.652;37.710;2023-07-02T00:21:14;98523.34;;;19.50;65.02
81232;BME280;70703;55.652;37.710;2023-07-02T00:21:26;98517.66;;;19.46;65.26
81232;BME280;70703;55.652;37.710;2023-07-02T00:21:39;98525.28;;;19.44;65.29
81232;BME280;70703;55.652;37.710;2023-07-02T00:21:53;98514.44;;;19.44;65.14
81232;BME280;70703;55.652;37.710;2023-07-02T00:22:06;98474.94;;;19.12;65.32
81232;BME280;70703;55.652;37.710;2023-07-02T00:22:18;98523.59;;;19.48;65.42
81232;BME280;70703;55.652;37.710;2023-07-02T00:22:29;98514.44;;;19.39;65.57
81232;BME280;70703;55.652;37.710;2023-07-02T00:22:41;98515.25;;;19.39;65.68
81232;BME280;70703;55.652;37.710;2023-07-02T00:22:56;98516.59;;;19.42;65.42
81232;BME280;70703;55.652;37.710;2023-07-02T00:23:09;98523.09;;;19.46;65.71
81232;BME280;70703;55.652;37.710;2023-07-02T00:23:21;98528.50;;;19.46;65.48
81232;BME280;70703;55.652;37.710;2023-07-02T00:23:35;98516.59;;;19.42;65.50
81232;BME280;70703;55.652;37.710;2023-07-02T00:23:46;98519.84;;;19.44;65.40
81232;BME280;70703;55.652;37.710;2023-07-02T00:23:59;98518.78;;;19.40;65.34
81232;BME280;70703;55.652;37.710;2023-07-02T00:24:11;98526.88;;;19.45;65.60
81232;BME280;70703;55.652;37.710;2023-07-02T00:24:22;98522.56;;;19.44;65.56
81232;BME280;70703;55.652;37.710;2023-07-02T00:24:35;98482.53;;;19.15;65.63
81232;BME280;70703;55.652;37.710;2023-07-02T00:24:46;98507.94;;;19.35;65.57
81232;BME280;70703;55.652;37.710;2023-07-02T00:24:58;98537.72;;;19.45;65.55
81232;BME280;70703;55.652;37.710;2023-07-02T00:25:12;98508.50;;;19.32;65.29
81232;BME280;70703;55.652;37.710;2023-07-02T00:25:24;98525.81;;;19.41;65.60
81232;BME280;70703;55.652;37.710;2023-07-02T00:25:36;98532.31;;;19.45;65.54
81232;BME280;70703;55.652;37.710;2023-07-02T00:25:49;98484.16;;;19.11;65.33
81232;BME280;70703;55.652;37.710;2023-07-02T00:26:01;98520.41;;;19.36;65.50
81232;BME280;70703;55.652;37.710;2023-07-02T00:26:13;98502.56;;;19.24;65.26
81232;BME280;70703;55.652;37.710;2023-07-02T00:26:26;98521.50;;;19.40;65.36
81232;BME280;70703;55.652;37.710;2023-07-02T00:26:38;98517.44;;;19.37;65.07
81232;BME280;70703;55.652;37.710;2023-07-02T00:26:54;98529.34;;;19.41;65.31
81232;BME280;70703;55.652;37.710;2023-07-02T00:27:07;98526.63;;;19.41;65.38
81232;BME280;70703;55.652;37.710;2023-07-02T00:27:18;98527.44;;;19.42;65.21
81232;BME280;70703;55.652;37.710;2023-07-02T00:27:30;98526.34;;;19.43;65.24
81232;BME280;70703;55.652;37.710;2023-07-02T00:27:42;98520.13;;;19.37;65.28
81232;BME280;70703;55.652;37.710;2023-07-02T00:27:53;98509.59;;;19.31;65.21
81232;BME280;70703;55.652;37.710;2023-07-02T00:28:05;98510.13;;;19.28;64.99
81232;BME280;70703;55.652;37.710;2023-07-02T00:28:17;98527.97;;;19.44;65.12
81232;BME280;70703;55.652;37.710;2023-07-02T00:28:29;98516.88;;;19.35;65.24
81232;BME280;70703;55.652;37.710;2023-07-02T00:28:41;98529.06;;;19.43;65.28
81232;BME280;70703;55.652;37.710;2023-07-02T00:28:53;98517.72;;;19.36;65.32
81232;BME280;70703;55.652;37.710;2023-07-02T00:29:05;98529.06;;;19.43;65.65
81232;BME280;70703;55.652;37.710;2023-07-02T00:29:17;98527.19;;;19.38;65.63
81232;BME280;70703;55.652;37.710;2023-07-02T00:29:29;98511.50;;;19.30;65.52
81232;BME280;70703;55.652;37.710;2023-07-02T00:29:41;98528.00;;;19.39;65.41
81232;BME280;70703;55.652;37.710;2023-07-02T00:29:52;98529.63;;;19.40;65.57
81232;BME280;70703;55.652;37.710;2023-07-02T00:30:05;98524.47;;;19.38;65.63
81232;BME280;70703;55.652;37.710;2023-07-02T00:30:17;98535.84;;;19.40;65.77
81232;BME280;70703;55.652;37.710;2023-07-02T00:30:29;98509.59;;;19.31;65.69
81232;BME280;70703;55.652;37.710;2023-07-02T00:30:41;98518.50;;;19.36;65.57
81232;BME280;70703;55.652;37.710;2023-07-02T00:30:54;98535.31;;;19.38;65.62
81232;BME280;70703;55.652;37.710;2023-07-02T00:31:06;98509.63;;;19.20;65.64
81232;BME280;70703;55.652;37.710;2023-07-02T00:31:19;98531.78;;;19.38;65.41
81232;BME280;70703;55.652;37.710;2023-07-02T00:31:31;98526.09;;;19.39;65.58
81232;BME280;70703;55.652;37.710;2023-07-02T00:31:42;98533.97;;;19.36;65.69
81232;BME280;70703;55.652;37.710;2023-07-02T00:31:54;98508.78;;;19.20;65.40
81232;BME280;70703;55.652;37.710;2023-07-02T00:32:08;98528.28;;;19.37;65.44
81232;BME280;70703;55.652;37.710;2023-07-02T00:32:20;98522.06;;;19.32;65.42
81232;BME280;70703;55.652;37.710;2023-07-02T00:32:31;98527.47;;;19.32;65.88
81232;BME280;70703;55.652;37.710;2023-07-02T00:32:42;98532.63;;;19.38;65.67
81232;BME280;70703;55.652;37.710;2023-07-02T00:32:55;98525.28;;;19.34;66.08
81232;BME280;70703;55.652;37.710;2023-07-02T00:33:08;98525.84;;;19.36;66.10
81232;BME280;70703;55.652;37.710;2023-07-02T00:33:19;98528.00;;;19.39;65.99
81232;BME280;70703;55.652;37.710;2023-07-02T00:33:31;98524.72;;;19.37;65.88
81232;BME280;70703;55.652;37.710;2023-07-02T00:33:43;98531.78;;;19.38;65.87
81232;BME280;70703;55.652;37.710;2023-07-02T00:33:56;98518.78;;;19.35;65.89
81232;BME280;70703;55.652;37.710;2023-07-02T00:34:08;98523.94;;;19.36;65.65
81232;BME280;70703;55.652;37.710;2023-07-02T00:34:20;98532.63;;;19.38;65.91
81232;BME280;70703;55.652;37.710;2023-07-02T00:34:32;98538.84;;;19.39;65.74
81232;BME280;70703;55.652;37.710;2023-07-02T00:34:44;98520.69;;;19.34;65.70
81232;BME280;70703;55.652;37.710;2023-07-02T00:34:55;98523.13;;;19.36;65.82
81232;BME280;70703;55.652;37.710;2023-07-02T00:35:06;98527.72;;;19.35;65.91
81232;BME280;70703;55.652;37.710;2023-07-02T00:35:19;98525.56;;;19.37;65.62
81232;BME280;70703;55.652;37.710;2023-07-02T00:35:31;98529.06;;;19.38;65.73
81232;BME280;70703;55.652;37.710;2023-07-02T00:35:44;98523.41;;;19.34;65.56
81232;BME280;70703;55.652;37.710;2023-07-02T00:35:57;98520.94;;;19.38;65.93
81232;BME280;70703;55.652;37.710;2023-07-02T00:36:08;98529.06;;;19.38;65.78
81232;BME280;70703;55.652;37.710;2023-07-02T00:36:25;98530.16;;;19.37;66.08
81232;BME280;70703;55.652;37.710;2023-07-02T00:36:36;98523.41;;;19.34;66.06
81232;BME280;70703;55.652;37.710;2023-07-02T00:36:47;98527.72;;;19.35;65.83
81232;BME280;70703;55.652;37.710;2023-07-02T00:37:00;98521.50;;;19.35;66.07
81232;BME280;70703;55.652;37.710;2023-07-02T00:37:13;98528.56;;;19.36;65.99
81232;BME280;70703;55.652;37.710;2023-07-02T00:37:26;98519.34;;;19.32;65.83
81232;BME280;70703;55.652;37.710;2023-07-02T00:37:38;98529.34;;;19.36;66.01
81232;BME280;70703;55.652;37.710;2023-07-02T00:37:49;98523.69;;;19.33;65.72
81232;BME280;70703;55.652;37.710;2023-07-02T00:38:01;98507.97;;;19.24;65.57
81232;BME280;70703;55.652;37.710;2023-07-02T00:38:13;98510.16;;;19.22;65.62
81232;BME280;70703;55.652;37.710;2023-07-02T00:38:25;98528.00;;;19.34;65.71
81232;BME280;70703;55.652;37.710;2023-07-02T00:38:37;98523.69;;;19.33;65.72
81232;BME280;70703;55.652;37.710;2023-07-02T00:38:49;98528.56;;;19.36;65.71
81232;BME280;70703;55.652;37.710;2023-07-02T00:39:01;98535.84;;;19.35;65.90
81232;BME280;70703;55.652;37.710;2023-07-02T00:39:15;98524.78;;;19.32;65.98
81232;BME280;70703;55.652;37.710;2023-07-02T00:39:29;98527.47;;;19.32;66.05
81232;BME280;70703;55.652;37.710;2023-07-02T00:39:42;98538.56;;;19.35;65.81
81232;BME280;70703;55.652;37.710;2023-07-02T00:39:53;98531.53;;;19.34;65.80
81232;BME280;70703;55.652;37.710;2023-07-02T00:40:06;98533.97;;;19.36;65.97
81232;BME280;70703;55.652;37.710;2023-07-02T00:40:19;98529.09;;;19.33;66.06
81232;BME280;70703;55.652;37.710;2023-07-02T00:40:31;98531.28;;;19.31;65.85
81232;BME280;70703;55.652;37.710;2023-07-02T00:40:45;98527.47;;;19.32;65.89
81232;BME280;70703;55.652;37.710;2023-07-02T00:40:59;98529.09;;;19.33;66.31
81232;BME280;70703;55.652;37.710;2023-07-02T00:41:10;98489.88;;;19.04;66.08
81232;BME280;70703;55.652;37.710;2023-07-02T00:41:23;98530.72;;;19.34;66.04
81232;BME280;70703;55.652;37.710;2023-07-02T00:41:34;98524.78;;;19.32;66.14
81232;BME280;70703;55.652;37.710;2023-07-02T00:41:46;98533.41;;;19.34;66.38
81232;BME280;70703;55.652;37.710;2023-07-02T00:42:00;98523.69;;;19.33;66.44
81232;BME280;70703;55.652;37.710;2023-07-02T00:42:13;98523.69;;;19.33;66.24
81232;BME280;70703;55.652;37.710;2023-07-02T00:42:25;98531.00;;;19.32;65.91
81232;BME280;70703;55.652;37.710;2023-07-02T00:42:41;98534.53;;;19.33;66.08
81232;BME280;70703;55.652;37.710;2023-07-02T00:42:53;98532.34;;;19.30;65.88
81232;BME280;70703;55.652;37.710;2023-07-02T00:43:06;98530.47;;;19.30;66.18
81232;BME280;70703;55.652;37.710;2023-07-02T00:43:21;98529.63;;;19.30;65.88
81232;BME280;70703;55.652;37.710;2023-07-02T00:43:33;98534.53;;;19.33;66.08
81232;BME280;70703;55.652;37.710;2023-07-02T00:43:45;98524.50;;;19.28;66.17
81232;BME280;70703;55.652;37.710;2023-07-02T00:43:57;98528.28;;;19.32;66.21
81232;BME280;70703;55.652;37.710;2023-07-02T00:44:09;98539.94;;;19.33;66.36
81232;BME280;70703;55.652;37.710;2023-07-02T00:44:21;98529.34;;;19.31;66.17
81232;BME280;70703;55.652;37.710;2023-07-02T00:44:32;98526.94;;;19.30;66.45
81232;BME280;70703;55.652;37.710;2023-07-02T00:44:52;98535.59;;;19.32;66.19
81232;BME280;70703;55.652;37.710;2023-07-02T00:45:06;98528.84;;;19.29;66.13
81232;BME280;70703;55.652;37.710;2023-07-02T00:45:17;98535.34;;;19.28;66.10
81232;BME280;70703;55.652;37.710;2023-07-02T00:45:30;98531.28;;;19.31;66.10
81232;BME280;70703;55.652;37.710;2023-07-02T00:45:44;98532.63;;;19.28;66.39
81232;BME280;70703;55.652;37.710;2023-07-02T00:45:57;98523.41;;;19.29;65.93
81232;BME280;70703;55.652;37.710;2023-07-02T00:46:13;98530.47;;;19.25;66.24
81232;BME280;70703;55.652;37.710;2023-07-02T00:46:28;98530.47;;;19.30;66.03
81232;BME280;70703;55.652;37.710;2023-07-02T00:46:41;98535.06;;;19.30;66.10
81232;BME280;70703;55.652;37.710;2023-07-02T00:46:53;98530.75;;;19.29;66.08
81232;BME280;70703;55.652;37.710;2023-07-02T00:47:07;98519.91;;;19.18;66.30
81232;BME280;70703;55.652;37.710;2023-07-02T00:47:18;98535.06;;;19.30;66.08
81232;BME280;70703;55.652;37.710;2023-07-02T00:47:30;98535.06;;;19.30;66.08
81232;BME280;70703;55.652;37.710;2023-07-02T00:47:45;98520.75;;;19.19;66.44
81232;BME280;70703;55.652;37.710;2023-07-02T00:47:58;98531.31;;;19.20;66.28
81232;BME280;70703;55.652;37.710;2023-07-02T00:48:10;98520.19;;;19.22;66.27
81232;BME280;70703;55.652;37.710;2023-07-02T00:48:22;98532.34;;;19.30;66.46
81232;BME280;70703;55.652;37.710;2023-07-02T00:48:34;98532.34;;;19.30;66.16
81232;BME280;70703;55.652;37.710;2023-07-02T00:48:47;98539.69;;;19.29;66.30
81232;BME280;70703;55.652;37.710;2023-07-02T00:49:01;98534.25;;;19.29;66.52
81232;BME280;70703;55.652;37.710;2023-07-02T00:49:16;98535.06;;;19.30;66.26
81232;BME280;70703;55.652;37.710;2023-07-02T00:49:28;98534.53;;;19.28;66.55
81232;BME280;70703;55.652;37.710;2023-07-02T00:49:39;98531.81;;;19.28;66.21
81232;BME280;70703;55.652;37.710;2023-07-02T00:49:51;98530.19;;;19.27;66.31
81232;BME280;70703;55.652;37.710;2023-07-02T00:50:05;98536.16;;;19.29;66.15
81232;BME280;70703;55.652;37.710;2023-07-02T00:50:18;98533.47;;;19.29;66.31
81232;BME280;70703;55.652;37.710;2023-07-02T00:50:31;98536.97;;;19.29;66.14
81232;BME280;70703;55.652;37.710;2023-07-02T00:50:44;98537.81;;;19.24;66.18
81232;BME280;70703;55.652;37.710;2023-07-02T00:50:56;98539.97;;;19.28;66.10
81232;BME280;70703;55.652;37.710;2023-07-02T00:51:08;98534.53;;;19.22;66.11
81232;BME280;70703;55.652;37.710;2023-07-02T00:51:21;98541.03;;;19.27;66.51
81232;BME280;70703;55.652;37.710;2023-07-02T00:51:32;98539.41;;;19.25;66.01
81232;BME280;70703;55.652;37.710;2023-07-02T00:51:46;98528.56;;;19.25;66.30
81232;BME280;70703;55.652;37.710;2023-07-02T00:52:00;98530.47;;;19.25;66.50
81232;BME280;70703;55.652;37.710;2023-07-02T00:52:12;98540.22;;;19.26;66.17
81232;BME280;70703;55.652;37.710;2023-07-02T00:52:26;98541.03;;;19.27;66.22
81232;BME280;70703;55.652;37.710;2023-07-02T00:52:38;98542.66;;;19.28;66.10
81232;BME280;70703;55.652;37.710;2023-07-02T00:52:50;98526.44;;;19.17;66.09
81232;BME280;70703;55.652;37.710;2023-07-02T00:53:05;98495.59;;;18.98;66.38
81232;BME280;70703;55.652;37.710;2023-07-02T00:53:17;98538.59;;;19.25;66.50
81232;BME280;70703;55.652;37.710;2023-07-02T00:53:31;98541.03;;;19.27;66.29
81232;BME280;70703;55.652;37.710;2023-07-02T00:53:44;98519.94;;;19.08;66.25
81232;BME280;70703;55.652;37.710;2023-07-02T00:53:57;98544.81;;;19.25;66.22
81232;BME280;70703;55.652;37.710;2023-07-02T00:54:10;98535.88;;;19.25;66.28
81232;BME280;70703;55.652;37.710;2023-07-02T00:54:22;98541.31;;;19.25;66.33
81232;BME280;70703;55.652;37.710;2023-07-02T00:54:34;98533.97;;;19.25;65.97
81232;BME280;70703;55.652;37.710;2023-07-02T00:54:47;98534.28;;;19.19;66.27
81232;BME280;70703;55.652;37.710;2023-07-02T00:54:58;98533.47;;;19.23;66.40
81232;BME280;70703;55.652;37.710;2023-07-02T00:55:10;98540.78;;;19.23;66.56
81232;BME280;70703;55.652;37.710;2023-07-02T00:55:21;98539.41;;;19.25;66.30
81232;BME280;70703;55.652;37.710;2023-07-02T00:55:33;98490.19;;;18.87;66.28
81232;BME280;70703;55.652;37.710;2023-07-02T00:55:44;98543.22;;;19.24;66.64
81232;BME280;70703;55.652;37.710;2023-07-02T00:55:56;98541.59;;;19.23;66.32
81232;BME280;70703;55.652;37.710;2023-07-02T00:56:07;98539.69;;;19.24;66.53
81232;BME280;70703;55.652;37.710;2023-07-02T00:56:20;98546.22;;;19.23;66.73
81232;BME280;70703;55.652;37.710;2023-07-02T00:56:33;98539.97;;;19.22;66.54
81232;BME280;70703;55.652;37.710;2023-07-02T00:56:45;98537.53;;;19.21;66.65
81232;BME280;70703;55.652;37.710;2023-07-02T00:57:01;98543.78;;;19.21;66.60
81232;BME280;70703;55.652;37.710;2023-07-02T00:57:13;98503.16;;;18.96;66.51
81232;BME280;70703;55.652;37.710;2023-07-02T00:57:26;98540.78;;;19.23;66.87
81232;BME280;70703;55.652;37.710;2023-07-02T00:57:40;98547.00;;;19.23;66.81
81232;BME280;70703;55.652;37.710;2023-07-02T00:57:58;98540.50;;;19.19;66.40
81232;BME280;70703;55.652;37.710;2023-07-02T00:58:10;98539.97;;;19.22;66.54
81232;BME280;70703;55.652;37.710;2023-07-02T00:58:24;98525.38;;;19.13;66.58
81232;BME280;70703;55.652;37.710;2023-07-02T00:58:38;98550.53;;;19.24;66.86
81232;BME280;70703;55.652;37.710;2023-07-02T00:58:53;98490.69;;;18.84;66.40
81232;BME280;70703;55.652;37.710;2023-07-02T00:59:09;98550.28;;;19.20;66.44
81232;BME280;70703;55.652;37.710;2023-07-02T00:59:20;98537.53;;;19.21;66.66
81232;BME280;70703;55.652;37.710;2023-07-02T00:59:32;98537.00;;;19.19;66.78
81232;BME280;70703;55.652;37.710;2023-07-02T00:59:47;98548.38;;;19.21;66.65
81232;BME280;70703;55.652;37.710;2023-07-02T00:59:59;98524.28;;;19.09;66.72
81232;BME280;70703;55.652;37.710;2023-07-02T01:00:12;98542.66;;;19.22;66.57
81232;BME280;70703;55.652;37.710;2023-07-02T01:00:32;98537.28;;;19.17;66.59
81232;BME280;70703;55.652;37.710;2023-07-02T01:00:46;98551.06;;;19.21;66.77
81232;BME280;70703;55.652;37.710;2023-07-02T01:01:10;98545.94;;;19.19;66.75
81232;BME280;70703;55.652;37.710;2023-07-02T01:01:28;98546.50;;;19.21;66.73
81232;BME280;70703;55.652;37.710;2023-07-02T01:01:49;98538.34;;;19.21;66.67
81232;BME280;70703;55.652;37.710;2023-07-02T01:02:07;98547.56;;;19.20;66.99
81232;BME280;70703;55.652;37.710;2023-07-02T01:02:19;98523.47;;;18.98;66.96
81232;BME280;70703;55.652;37.710;2023-07-02T01:02:31;98553.00;;;19.20;66.82
81232;BME280;70703;55.652;37.710;2023-07-02T01:02:43;98546.75;;;19.20;66.68
81232;BME280;70703;55.652;37.710;2023-07-02T01:03:08;98559.22;;;19.21;66.90
81232;BME280;70703;55.652;37.710;2023-07-02T01:03:23;98553.00;;;19.20;66.90
81232;BME280;70703;55.652;37.710;2023-07-02T01:03:36;98543.78;;;19.16;66.74
81232;BME280;70703;55.652;37.710;2023-07-02T01:03:51;98553.00;;;19.20;66.68
81232;BME280;70703;55.652;37.710;2023-07-02T01:04:07;98551.34;;;19.19;66.70
81232;BME280;70703;55.652;37.710;2023-07-02T01:04:18;98547.00;;;19.18;66.84
81232;BME280;70703;55.652;37.710;2023-07-02T01:04:30;98554.63;;;19.21;66.66
81232;BME280;70703;55.652;37.710;2023-07-02T01:04:42;98551.34;;;19.19;66.93
81232;BME280;70703;55.652;37.710;2023-07-02T01:05:00;98524.84;;;18.96;66.94
81232;BME280;70703;55.652;37.710;2023-07-02T01:05:16;98546.75;;;19.20;66.69
81232;BME280;70703;55.652;37.710;2023-07-02T01:05:29;98545.66;;;19.21;66.98
81232;BME280;70703;55.652;37.710;2023-07-02T01:05:46;98542.16;;;19.15;66.76
81232;BME280;70703;55.652;37.710;2023-07-02T01:05:58;98557.56;;;19.20;66.76
81232;BME280;70703;55.652;37.710;2023-07-02T01:06:10;98547.84;;;19.19;66.74
81232;BME280;70703;55.652;37.710;2023-07-02T01:06:25;98559.47;;;19.19;66.92
81232;BME280;70703;55.652;37.710;2023-07-02T01:06:37;98555.16;;;19.18;66.83
81232;BME280;70703;55.652;37.710;2023-07-02T01:06:51;98541.06;;;19.16;66.65
81232;BME280;70703;55.652;37.710;2023-07-02T01:07:11;98555.97;;;19.19;66.62
81232;BME280;70703;55.652;37.710;2023-07-02T01:07:23;98555.97;;;19.19;66.84
81232;BME280;70703;55.652;37.710;2023-07-02T01:07:36;98545.41;;;19.17;66.72
81232;BME280;70703;55.652;37.710;2023-07-02T01:07:47;98549.72;;;19.18;66.92